sensor_id;sensor_type;location;lat;lon;timestamp;temperature;humidity
41756;DHT22;27435;48.480;9.258;2023-07-16T00:02:03;20.00;99.00
41756;DHT22;27435;48.480;9.258;2023-07-16T00:04:30;20.00;99.00
41756;DHT22;27435;48.480;9.258;2023-07-16T00:06:56;19.90;99.00
41756;DHT22;27435;48.480;9.258;2023-07-16T00:09:22;19.80;99.00
41756;DHT22;27435;48.480;9.258;2023-07-16T00:11:47;19.80;99.00
41756;DHT22;27435;48.480;9.258;2023-07-16T00:14:13;19.90;99.00
41756;DHT22;27435;48.480;9.258;2023-07-16T00:16:39;19.60;99.00
41756;DHT22;27435;48.480;9.258;2023-07-16T00:19:04;19.30;99.00
41756;DHT22;27435;48.480;9.258;2023-07-16T00:21:30;19.30;99.00
41756;DHT22;27435;48.480;9.258;2023-07-16T00:23:56;19.30;99.00
41756;DHT22;27435;48.480;9.258;2023-07-16T00:26:21;19.20;99.00
41756;DHT22;27435;48.480;9.258;2023-07-16T00:28:47;19.10;99.00
41756;DHT22;27435;48.480;9.258;2023-07-16T00:31:13;19.10;99.00
41756;DHT22;27435;48.480;9.258;2023-07-16T00:33:38;19.00;99.00
41756;DHT22;27435;48.480;9.258;2023-07-16T00:36:04;19.00;99.00
41756;DHT22;27435;48.480;9.258;2023-07-16T00:38:30;19.10;99.00
41756;DHT22;27435;48.480;9.258;2023-07-16T00:40:56;19.10;99.00
41756;DHT22;27435;48.480;9.258;2023-07-16T00:43:22;19.20;99.00
41756;DHT22;27435;48.480;9.258;2023-07-16T00:45:48;19.20;99.00
41756;DHT22;27435;48.480;9.258;2023-07-16T00:48:15;19.20;99.00
41756;DHT22;27435;48.480;9.258;2023-07-16T00:50:41;19.20;99.00
41756;DHT22;27435;48.480;9.258;2023-07-16T00:53:07;19.40;99.00
41756;DHT22;27435;48.480;9.258;2023-07-16T00:55:34;19.40;99.00
41756;DHT22;27435;48.480;9.258;2023-07-16T00:58:03;19.50;99.00
41756;DHT22;27435;48.480;9.258;2023-07-16T01:00:34;19.50;99.00
41756;DHT22;27435;48.480;9.258;2023-07-16T01:03:02;19.60;99.00
41756;DHT22;27435;48.480;9.258;2023-07-16T01:05:34;19.30;99.00
41756;DHT22;27435;48.480;9.258;2023-07-16T01:08:04;19.10;99.00
41756;DHT22;27435;48.480;9.258;2023-07-16T01:10:31;18.80;99.00
41756;DHT22;27435;48.480;9.258;2023-07-16T01:12:58;18.50;99.00
41756;DHT22;27435;48.480;9.258;2023-07-16T01:15:24;18.30;99.00
41756;DHT22;27435;48.480;9.258;2023-07-16T01:17:50;18.10;99.00
41756;DHT22;27435;48.480;9.258;2023-07-16T01:20:15;18.00;99.00
41756;DHT22;27435;48.480;9.258;2023-07-16T01:23:08;17.90;99.00
41756;DHT22;27435;48.480;9.258;2023-07-16T01:31:03;17.80;99.00
41756;DHT22;27435;48.480;9.258;2023-07-16T01:33:29;17.80;99.00
41756;DHT22;27435;48.480;9.258;2023-07-16T01:35:57;17.70;99.00
41756;DHT22;27435;48.480;9.258;2023-07-16T01:38:23;17.70;99.00
41756;DHT22;27435;48.480;9.258;2023-07-16T01:40:49;17.70;99.00
41756;DHT22;27435;48.480;9.258;2023-07-16T01:43:15;17.60;99.00
41756;DHT22;27435;48.480;9.258;2023-07-16T01:45:41;17.50;99.00
41756;DHT22;27435;48.480;9.258;2023-07-16T01:48:35;17.50;99.00
41756;DHT22;27435;48.480;9.258;2023-07-16T01:51:03;17.40;99.00
41756;DHT22;27435;48.480;9.258;2023-07-16T01:53:29;17.40;99.00
41756;DHT22;27435;48.480;9.258;2023-07-16T01:55:54;17.40;99.00
41756;DHT22;27435;48.480;9.258;2023-07-16T01:58:20;17.20;99.00
41756;DHT22;27435;48.480;9.258;2023-07-16T02:00:46;17.20;99.00
41756;DHT22;27435;48.480;9.258;2023-07-16T02:03:13;17.30;99.00
41756;DHT22;27435;48.480;9.258;2023-07-16T02:05:39;17.20;99.00
41756;DHT22;27435;48.480;9.258;2023-07-16T02:08:04;17.10;99.00
41756;DHT22;27435;48.480;9.258;2023-07-16T02:10:30;17.20;99.00
41756;DHT22;27435;48.480;9.258;2023-07-16T02:12:56;17.30;99.00
41756;DHT22;27435;48.480;9.258;2023-07-16T02:15:22;17.30;99.00
41756;DHT22;27435;48.480;9.258;2023-07-16T02:17:47;17.30;99.00
41756;DHT22;27435;48.480;9.258;2023-07-16T02:20:13;17.40;99.00
41756;DHT22;27435;48.480;9.258;2023-07-16T02:22:39;17.50;99.00
41756;DHT22;27435;48.480;9.258;2023-07-16T02:25:05;17.20;99.00
41756;DHT22;27435;48.480;9.258;2023-07-16T02:27:31;17.00;99.00
41756;DHT22;27435;48.480;9.258;2023-07-16T02:29:57;17.10;99.00
41756;DHT22;27435;48.480;9.258;2023-07-16T02:32:22;17.20;99.00
41756;DHT22;27435;48.480;9.258;2023-07-16T02:34:48;17.20;99.00
41756;DHT22;27435;48.480;9.258;2023-07-16T02:37:14;17.20;99.00
41756;DHT22;27435;48.480;9.258;2023-07-16T02:39:42;17.30;99.00
41756;DHT22;27435;48.480;9.258;2023-07-16T02:42:08;17.20;99.00
41756;DHT22;27435;48.480;9.258;2023-07-16T02:44:34;17.20;99.00
41756;DHT22;27435;48.480;9.258;2023-07-16T02:47:03;17.20;99.00
41756;DHT22;27435;48.480;9.258;2023-07-16T02:49:29;17.10;99.00
41756;DHT22;27435;48.480;9.258;2023-07-16T02:51:55;17.00;99.00
41756;DHT22;27435;48.480;9.258;2023-07-16T02:54:20;17.00;99.00
41756;DHT22;27435;48.480;9.258;2023-07-16T02:56:46;17.10;99.00
41756;DHT22;27435;48.480;9.258;2023-07-16T02:59:12;17.10;99.00
41756;DHT22;27435;48.480;9.258;2023-07-16T03:01:38;17.10;99.00
41756;DHT22;27435;48.480;9.258;2023-07-16T03:04:03;17.10;99.00
41756;DHT22;27435;48.480;9.258;2023-07-16T03:06:29;17.20;99.00
41756;DHT22;27435;48.480;9.258;2023-07-16T03:08:55;17.30;99.00
41756;DHT22;27435;48.480;9.258;2023-07-16T03:11:20;17.20;99.00
41756;DHT22;27435;48.480;9.258;2023-07-16T03:13:46;17.20;99.00
41756;DHT22;27435;48.480;9.258;2023-07-16T03:16:11;17.20;99.00
41756;DHT22;27435;48.480;9.258;2023-07-16T03:18:37;17.30;99.00
41756;DHT22;27435;48.480;9.258;2023-07-16T03:21:03;17.30;99.00
41756;DHT22;27435;48.480;9.258;2023-07-16T03:23:28;17.40;99.00
41756;DHT22;27435;48.480;9.258;2023-07-16T03:25:54;17.50;99.00
41756;DHT22;27435;48.480;9.258;2023-07-16T03:28:19;17.40;99.00
41756;DHT22;27435;48.480;9.258;2023-07-16T03:30:48;17.40;99.00
41756;DHT22;27435;48.480;9.258;2023-07-16T03:33:15;17.40;99.00
41756;DHT22;27435;48.480;9.258;2023-07-16T03:35:45;17.40;99.00
41756;DHT22;27435;48.480;9.258;2023-07-16T03:38:11;17.50;99.00
41756;DHT22;27435;48.480;9.258;2023-07-16T03:40:37;17.60;99.00
41756;DHT22;27435;48.480;9.258;2023-07-16T03:43:03;17.50;99.00
41756;DHT22;27435;48.480;9.258;2023-07-16T03:45:29;17.60;99.00
41756;DHT22;27435;48.480;9.258;2023-07-16T03:47:54;17.60;99.00
41756;DHT22;27435;48.480;9.258;2023-07-16T03:50:20;17.60;99.00
41756;DHT22;27435;48.480;9.258;2023-07-16T03:52:47;17.60;99.00
41756;DHT22;27435;48.480;9.258;2023-07-16T03:55:13;17.60;99.00
41756;DHT22;27435;48.480;9.258;2023-07-16T03:57:40;17.70;99.00
41756;DHT22;27435;48.480;9.258;2023-07-16T04:00:06;17.80;99.00
41756;DHT22;27435;48.480;9.258;2023-07-16T04:02:34;17.90;99.00
41756;DHT22;27435;48.480;9.258;2023-07-16T04:05:00;17.80;99.00
41756;DHT22;27435;48.480;9.258;2023-07-16T04:07:25;17.80;99.00
41756;DHT22;27435;48.480;9.258;2023-07-16T04:09:51;17.70;99.00
41756;DHT22;27435;48.480;9.258;2023-07-16T04:12:17;17.60;99.00
41756;DHT22;27435;48.480;9.258;2023-07-16T04:14:43;17.50;99.00
41756;DHT22;27435;48.480;9.258;2023-07-16T04:17:09;17.50;99.00
41756;DHT22;27435;48.480;9.258;2023-07-16T04:19:35;17.60;99.00
41756;DHT22;27435;48.480;9.258;2023-07-16T04:22:00;17.80;99.00
41756;DHT22;27435;48.480;9.258;2023-07-16T04:24:26;17.80;99.00
41756;DHT22;27435;48.480;9.258;2023-07-16T04:26:54;17.80;99.00
41756;DHT22;27435;48.480;9.258;2023-07-16T04:29:20;17.80;99.00
41756;DHT22;27435;48.480;9.258;2023-07-16T04:31:46;17.90;99.00
41756;DHT22;27435;48.480;9.258;2023-07-16T04:34:12;17.90;99.00
41756;DHT22;27435;48.480;9.258;2023-07-16T04:36:38;17.90;99.00
41756;DHT22;27435;48.480;9.258;2023-07-16T04:39:04;18.00;99.00
41756;DHT22;27435;48.480;9.258;2023-07-16T04:41:30;17.90;99.00
41756;DHT22;27435;48.480;9.258;2023-07-16T04:43:56;17.90;99.00
41756;DHT22;27435;48.480;9.258;2023-07-16T04:46:22;17.90;99.00
41756;DHT22;27435;48.480;9.258;2023-07-16T04:48:47;17.90;99.00
41756;DHT22;27435;48.480;9.258;2023-07-16T04:51:13;17.90;99.00
41756;DHT22;27435;48.480;9.258;2023-07-16T04:53:39;17.70;99.00
41756;DHT22;27435;48.480;9.258;2023-07-16T04:56:04;17.60;99.00
41756;DHT22;27435;48.480;9.258;2023-07-16T04:58:35;17.70;99.00
41756;DHT22;27435;48.480;9.258;2023-07-16T05:01:01;17.90;99.00
41756;DHT22;27435;48.480;9.258;2023-07-16T05:03:26;18.00;99.00
41756;DHT22;27435;48.480;9.258;2023-07-16T05:05:52;17.90;99.00
41756;DHT22;27435;48.480;9.258;2023-07-16T05:08:18;17.90;99.00
41756;DHT22;27435;48.480;9.258;2023-07-16T05:10:43;18.00;99.00
41756;DHT22;27435;48.480;9.258;2023-07-16T05:13:09;18.20;99.00
41756;DHT22;27435;48.480;9.258;2023-07-16T05:15:34;18.20;99.00
41756;DHT22;27435;48.480;9.258;2023-07-16T05:18:00;18.20;99.00
41756;DHT22;27435;48.480;9.258;2023-07-16T05:20:25;18.40;99.00
41756;DHT22;27435;48.480;9.258;2023-07-16T05:22:51;18.50;99.00
41756;DHT22;27435;48.480;9.258;2023-07-16T05:25:16;18.60;99.00
41756;DHT22;27435;48.480;9.258;2023-07-16T05:27:42;18.60;99.00
41756;DHT22;27435;48.480;9.258;2023-07-16T05:30:08;18.70;99.00
41756;DHT22;27435;48.480;9.258;2023-07-16T05:32:34;18.60;99.00
41756;DHT22;27435;48.480;9.258;2023-07-16T05:35:00;18.60;99.00
41756;DHT22;27435;48.480;9.258;2023-07-16T05:37:26;18.60;99.00
41756;DHT22;27435;48.480;9.258;2023-07-16T05:39:52;18.60;99.00
41756;DHT22;27435;48.480;9.258;2023-07-16T05:42:17;18.60;99.00
41756;DHT22;27435;48.480;9.258;2023-07-16T05:44:43;18.70;99.00
41756;DHT22;27435;48.480;9.258;2023-07-16T05:47:09;18.70;99.00
41756;DHT22;27435;48.480;9.258;2023-07-16T05:49:35;18.90;99.00
41756;DHT22;27435;48.480;9.258;2023-07-16T05:52:01;18.80;99.00
41756;DHT22;27435;48.480;9.258;2023-07-16T05:54:26;18.70;99.00
41756;DHT22;27435;48.480;9.258;2023-07-16T05:56:52;18.70;99.00
41756;DHT22;27435;48.480;9.258;2023-07-16T05:59:18;18.80;99.00
41756;DHT22;27435;48.480;9.258;2023-07-16T06:01:44;19.00;99.00
41756;DHT22;27435;48.480;9.258;2023-07-16T06:04:09;19.10;99.00
41756;DHT22;27435;48.480;9.258;2023-07-16T06:06:35;19.20;99.00
41756;DHT22;27435;48.480;9.258;2023-07-16T06:09:01;19.30;99.00
41756;DHT22;27435;48.480;9.258;2023-07-16T06:11:27;19.40;99.00
41756;DHT22;27435;48.480;9.258;2023-07-16T06:13:55;19.30;99.00
41756;DHT22;27435;48.480;9.258;2023-07-16T06:16:21;19.00;99.00
41756;DHT22;27435;48.480;9.258;2023-07-16T06:18:47;18.90;99.00
41756;DHT22;27435;48.480;9.258;2023-07-16T06:21:12;19.10;99.00
41756;DHT22;27435;48.480;9.258;2023-07-16T06:23:38;18.90;99.00
41756;DHT22;27435;48.480;9.258;2023-07-16T06:26:04;18.90;99.00
41756;DHT22;27435;48.480;9.258;2023-07-16T06:28:30;18.80;99.00
41756;DHT22;27435;48.480;9.258;2023-07-16T06:30:56;18.60;99.00
41756;DHT22;27435;48.480;9.258;2023-07-16T06:33:21;18.60;99.00
41756;DHT22;27435;48.480;9.258;2023-07-16T06:35:48;18.60;99.00
41756;DHT22;27435;48.480;9.258;2023-07-16T06:38:14;18.70;99.00
41756;DHT22;27435;48.480;9.258;2023-07-16T06:40:46;18.90;99.00
41756;DHT22;27435;48.480;9.258;2023-07-16T06:43:12;19.20;99.00
41756;DHT22;27435;48.480;9.258;2023-07-16T06:45:38;19.50;99.00
41756;DHT22;27435;48.480;9.258;2023-07-16T06:48:04;19.60;99.00
41756;DHT22;27435;48.480;9.258;2023-07-16T06:50:29;19.50;99.00
41756;DHT22;27435;48.480;9.258;2023-07-16T06:52:55;19.50;99.00
41756;DHT22;27435;48.480;9.258;2023-07-16T06:55:20;19.60;99.00
41756;DHT22;27435;48.480;9.258;2023-07-16T06:57:46;19.90;99.00
41756;DHT22;27435;48.480;9.258;2023-07-16T07:00:12;20.20;99.00
41756;DHT22;27435;48.480;9.258;2023-07-16T07:02:37;20.40;99.00
41756;DHT22;27435;48.480;9.258;2023-07-16T07:05:03;20.10;99.00
41756;DHT22;27435;48.480;9.258;2023-07-16T07:07:29;19.50;99.00
41756;DHT22;27435;48.480;9.258;2023-07-16T07:09:55;19.00;99.00
41756;DHT22;27435;48.480;9.258;2023-07-16T07:12:21;18.90;99.00
41756;DHT22;27435;48.480;9.258;2023-07-16T07:14:48;19.00;99.00
41756;DHT22;27435;48.480;9.258;2023-07-16T07:17:14;19.10;99.00
41756;DHT22;27435;48.480;9.258;2023-07-16T07:19:40;19.30;99.00
41756;DHT22;27435;48.480;9.258;2023-07-16T07:22:06;19.30;99.00
41756;DHT22;27435;48.480;9.258;2023-07-16T07:24:32;19.60;99.00
41756;DHT22;27435;48.480;9.258;2023-07-16T07:26:57;19.90;99.00
41756;DHT22;27435;48.480;9.258;2023-07-16T07:29:23;20.00;99.00
41756;DHT22;27435;48.480;9.258;2023-07-16T07:31:48;20.10;99.00
41756;DHT22;27435;48.480;9.258;2023-07-16T07:34:14;20.20;99.00
41756;DHT22;27435;48.480;9.258;2023-07-16T07:36:40;20.20;98.90
41756;DHT22;27435;48.480;9.258;2023-07-16T07:39:05;20.50;99.00
41756;DHT22;27435;48.480;9.258;2023-07-16T07:41:31;20.60;98.70
41756;DHT22;27435;48.480;9.258;2023-07-16T07:43:57;20.80;97.90
41756;DHT22;27435;48.480;9.258;2023-07-16T07:46:22;20.70;97.90
41756;DHT22;27435;48.480;9.258;2023-07-16T07:48:48;20.70;96.60
41756;DHT22;27435;48.480;9.258;2023-07-16T07:51:14;20.40;97.60
41756;DHT22;27435;48.480;9.258;2023-07-16T07:53:39;20.50;98.80
41756;DHT22;27435;48.480;9.258;2023-07-16T07:56:05;20.40;97.50
41756;DHT22;27435;48.480;9.258;2023-07-16T07:58:30;20.30;97.80
41756;DHT22;27435;48.480;9.258;2023-07-16T08:00:56;20.40;97.80
41756;DHT22;27435;48.480;9.258;2023-07-16T08:03:21;20.70;98.00
41756;DHT22;27435;48.480;9.258;2023-07-16T08:05:50;20.90;98.20
41756;DHT22;27435;48.480;9.258;2023-07-16T08:08:15;20.70;94.90
41756;DHT22;27435;48.480;9.258;2023-07-16T08:10:42;20.80;94.40
41756;DHT22;27435;48.480;9.258;2023-07-16T08:13:08;21.00;95.10
41756;DHT22;27435;48.480;9.258;2023-07-16T08:15:33;21.20;90.10
41756;DHT22;27435;48.480;9.258;2023-07-16T08:17:59;21.00;91.40
41756;DHT22;27435;48.480;9.258;2023-07-16T08:20:26;20.90;88.80
41756;DHT22;27435;48.480;9.258;2023-07-16T08:22:51;20.90;90.60
41756;DHT22;27435;48.480;9.258;2023-07-16T08:25:17;20.90;88.30
41756;DHT22;27435;48.480;9.258;2023-07-16T08:27:44;20.90;88.10
41756;DHT22;27435;48.480;9.258;2023-07-16T08:30:10;21.00;87.90
41756;DHT22;27435;48.480;9.258;2023-07-16T08:32:35;21.20;88.80
41756;DHT22;27435;48.480;9.258;2023-07-16T08:35:01;22.00;85.30
41756;DHT22;27435;48.480;9.258;2023-07-16T08:37:26;22.60;82.20
41756;DHT22;27435;48.480;9.258;2023-07-16T08:39:52;22.70;82.60
41756;DHT22;27435;48.480;9.258;2023-07-16T08:42:21;22.40;83.10
41756;DHT22;27435;48.480;9.258;2023-07-16T08:44:50;22.10;81.90
41756;DHT22;27435;48.480;9.258;2023-07-16T08:47:16;21.80;82.70
41756;DHT22;27435;48.480;9.258;2023-07-16T08:49:57;21.60;83.40
41756;DHT22;27435;48.480;9.258;2023-07-16T08:52:24;21.80;83.80
41756;DHT22;27435;48.480;9.258;2023-07-16T08:54:51;21.80;83.80
41756;DHT22;27435;48.480;9.258;2023-07-16T08:57:17;21.50;83.50
41756;DHT22;27435;48.480;9.258;2023-07-16T08:59:44;21.30;86.80
41756;DHT22;27435;48.480;9.258;2023-07-16T09:02:12;21.50;86.10
41756;DHT22;27435;48.480;9.258;2023-07-16T09:04:38;21.60;84.50
41756;DHT22;27435;48.480;9.258;2023-07-16T09:07:04;21.50;85.90
41756;DHT22;27435;48.480;9.258;2023-07-16T09:09:30;21.50;85.50
41756;DHT22;27435;48.480;9.258;2023-07-16T09:11:55;21.80;84.60
41756;DHT22;27435;48.480;9.258;2023-07-16T09:14:21;21.90;83.60
41756;DHT22;27435;48.480;9.258;2023-07-16T09:16:51;22.10;82.60
41756;DHT22;27435;48.480;9.258;2023-07-16T09:19:17;22.10;80.70
41756;DHT22;27435;48.480;9.258;2023-07-16T09:21:47;22.20;82.00
41756;DHT22;27435;48.480;9.258;2023-07-16T09:24:13;22.30;80.70
41756;DHT22;27435;48.480;9.258;2023-07-16T09:26:46;21.90;80.80
41756;DHT22;27435;48.480;9.258;2023-07-16T09:29:12;21.90;82.00
41756;DHT22;27435;48.480;9.258;2023-07-16T09:31:38;22.50;80.80
41756;DHT22;27435;48.480;9.258;2023-07-16T09:34:03;22.70;78.20
41756;DHT22;27435;48.480;9.258;2023-07-16T09:36:29;22.50;77.20
41756;DHT22;27435;48.480;9.258;2023-07-16T09:38:55;22.40;79.00
41756;DHT22;27435;48.480;9.258;2023-07-16T09:41:22;22.80;78.20
41756;DHT22;27435;48.480;9.258;2023-07-16T09:43:48;23.00;76.50
41756;DHT22;27435;48.480;9.258;2023-07-16T09:46:14;23.30;75.30
41756;DHT22;27435;48.480;9.258;2023-07-16T09:48:40;22.80;75.80
41756;DHT22;27435;48.480;9.258;2023-07-16T09:51:07;22.80;76.10
41756;DHT22;27435;48.480;9.258;2023-07-16T09:53:39;23.10;75.60
41756;DHT22;27435;48.480;9.258;2023-07-16T09:56:08;23.00;74.80
41756;DHT22;27435;48.480;9.258;2023-07-16T09:58:35;22.90;74.40
41756;DHT22;27435;48.480;9.258;2023-07-16T10:01:03;22.60;74.40
41756;DHT22;27435;48.480;9.258;2023-07-16T10:03:28;22.80;74.90
41756;DHT22;27435;48.480;9.258;2023-07-16T10:06:05;22.80;74.60
41756;DHT22;27435;48.480;9.258;2023-07-16T10:08:34;22.70;75.30
41756;DHT22;27435;48.480;9.258;2023-07-16T10:11:00;22.90;76.00
41756;DHT22;27435;48.480;9.258;2023-07-16T10:13:26;23.30;74.00
41756;DHT22;27435;48.480;9.258;2023-07-16T10:15:57;23.50;73.30
41756;DHT22;27435;48.480;9.258;2023-07-16T10:18:30;23.80;72.20
41756;DHT22;27435;48.480;9.258;2023-07-16T10:21:04;24.30;71.10
41756;DHT22;27435;48.480;9.258;2023-07-16T10:23:40;24.40;70.30
41756;DHT22;27435;48.480;9.258;2023-07-16T10:26:06;24.80;69.90
41756;DHT22;27435;48.480;9.258;2023-07-16T10:28:33;24.80;68.20
41756;DHT22;27435;48.480;9.258;2023-07-16T10:30:59;24.60;68.30
41756;DHT22;27435;48.480;9.258;2023-07-16T10:33:25;24.20;69.90
41756;DHT22;27435;48.480;9.258;2023-07-16T10:35:51;23.90;71.30
41756;DHT22;27435;48.480;9.258;2023-07-16T10:38:16;23.40;73.00
41756;DHT22;27435;48.480;9.258;2023-07-16T10:40:46;23.10;73.80
41756;DHT22;27435;48.480;9.258;2023-07-16T10:43:12;23.10;73.90
41756;DHT22;27435;48.480;9.258;2023-07-16T10:45:38;23.20;72.50
41756;DHT22;27435;48.480;9.258;2023-07-16T10:48:04;23.50;71.20
41756;DHT22;27435;48.480;9.258;2023-07-16T10:50:32;23.80;70.60
41756;DHT22;27435;48.480;9.258;2023-07-16T10:52:59;24.30;69.40
41756;DHT22;27435;48.480;9.258;2023-07-16T10:55:27;24.50;68.20
41756;DHT22;27435;48.480;9.258;2023-07-16T10:57:53;24.50;68.80
41756;DHT22;27435;48.480;9.258;2023-07-16T11:00:21;24.50;68.50
41756;DHT22;27435;48.480;9.258;2023-07-16T11:02:48;24.50;69.20
41756;DHT22;27435;48.480;9.258;2023-07-16T11:05:15;25.20;67.90
41756;DHT22;27435;48.480;9.258;2023-07-16T11:07:48;25.80;65.90
41756;DHT22;27435;48.480;9.258;2023-07-16T11:10:17;26.10;64.40
41756;DHT22;27435;48.480;9.258;2023-07-16T11:12:43;25.60;66.20
41756;DHT22;27435;48.480;9.258;2023-07-16T11:15:10;25.30;67.60
41756;DHT22;27435;48.480;9.258;2023-07-16T11:17:37;25.20;68.20
41756;DHT22;27435;48.480;9.258;2023-07-16T11:20:07;25.30;67.80
41756;DHT22;27435;48.480;9.258;2023-07-16T11:22:37;25.40;67.20
41756;DHT22;27435;48.480;9.258;2023-07-16T11:25:03;25.80;66.50
41756;DHT22;27435;48.480;9.258;2023-07-16T11:27:31;26.20;65.00
41756;DHT22;27435;48.480;9.258;2023-07-16T11:29:59;26.60;63.90
41756;DHT22;27435;48.480;9.258;2023-07-16T11:34:58;26.60;63.30
41756;DHT22;27435;48.480;9.258;2023-07-16T11:37:28;26.30;63.90
41756;DHT22;27435;48.480;9.258;2023-07-16T11:40:03;26.10;64.20
41756;DHT22;27435;48.480;9.258;2023-07-16T11:42:37;26.20;63.90
41756;DHT22;27435;48.480;9.258;2023-07-16T11:45:03;25.80;65.20
41756;DHT22;27435;48.480;9.258;2023-07-16T11:47:30;25.80;64.20
41756;DHT22;27435;48.480;9.258;2023-07-16T11:49:56;25.40;66.50
41756;DHT22;27435;48.480;9.258;2023-07-16T11:52:23;25.40;66.70
41756;DHT22;27435;48.480;9.258;2023-07-16T11:54:50;25.70;65.30
41756;DHT22;27435;48.480;9.258;2023-07-16T11:57:16;25.70;66.30
41756;DHT22;27435;48.480;9.258;2023-07-16T11:59:42;25.10;67.40
41756;DHT22;27435;48.480;9.258;2023-07-16T12:02:07;24.80;69.10
41756;DHT22;27435;48.480;9.258;2023-07-16T12:04:34;24.60;69.40
41756;DHT22;27435;48.480;9.258;2023-07-16T12:06:59;24.40;70.10
41756;DHT22;27435;48.480;9.258;2023-07-16T12:09:25;24.50;67.90
41756;DHT22;27435;48.480;9.258;2023-07-16T12:11:50;24.70;69.10
41756;DHT22;27435;48.480;9.258;2023-07-16T12:14:16;25.10;69.40
41756;DHT22;27435;48.480;9.258;2023-07-16T12:16:42;25.10;68.70
41756;DHT22;27435;48.480;9.258;2023-07-16T12:19:08;25.20;68.40
41756;DHT22;27435;48.480;9.258;2023-07-16T12:21:35;25.40;67.50
41756;DHT22;27435;48.480;9.258;2023-07-16T12:24:00;25.40;66.80
41756;DHT22;27435;48.480;9.258;2023-07-16T12:26:26;25.40;66.60
41756;DHT22;27435;48.480;9.258;2023-07-16T12:28:52;25.70;66.10
41756;DHT22;27435;48.480;9.258;2023-07-16T12:31:18;25.90;66.00
41756;DHT22;27435;48.480;9.258;2023-07-16T12:33:45;26.00;64.70
41756;DHT22;27435;48.480;9.258;2023-07-16T12:36:12;26.10;65.80
41756;DHT22;27435;48.480;9.258;2023-07-16T12:38:38;26.10;65.80
41756;DHT22;27435;48.480;9.258;2023-07-16T12:41:03;26.10;65.50
41756;DHT22;27435;48.480;9.258;2023-07-16T12:43:29;26.10;64.70
41756;DHT22;27435;48.480;9.258;2023-07-16T12:45:55;26.20;63.60
41756;DHT22;27435;48.480;9.258;2023-07-16T12:48:20;26.30;63.90
41756;DHT22;27435;48.480;9.258;2023-07-16T12:50:46;26.70;63.70
41756;DHT22;27435;48.480;9.258;2023-07-16T12:53:11;26.30;64.40
41756;DHT22;27435;48.480;9.258;2023-07-16T12:55:38;26.40;65.10
41756;DHT22;27435;48.480;9.258;2023-07-16T12:58:03;27.00;64.10
41756;DHT22;27435;48.480;9.258;2023-07-16T13:00:29;27.10;63.40
41756;DHT22;27435;48.480;9.258;2023-07-16T13:02:55;26.90;62.40
41756;DHT22;27435;48.480;9.258;2023-07-16T13:05:20;26.50;62.70
41756;DHT22;27435;48.480;9.258;2023-07-16T13:07:46;26.60;64.30
41756;DHT22;27435;48.480;9.258;2023-07-16T13:10:11;26.60;64.80
41756;DHT22;27435;48.480;9.258;2023-07-16T13:12:37;27.10;62.90
41756;DHT22;27435;48.480;9.258;2023-07-16T13:15:03;27.60;61.20
41756;DHT22;27435;48.480;9.258;2023-07-16T13:17:28;27.80;61.00
41756;DHT22;27435;48.480;9.258;2023-07-16T13:19:54;27.90;60.20
41756;DHT22;27435;48.480;9.258;2023-07-16T13:22:20;28.30;60.00
41756;DHT22;27435;48.480;9.258;2023-07-16T13:24:45;28.80;59.30
41756;DHT22;27435;48.480;9.258;2023-07-16T13:27:20;28.60;58.90
41756;DHT22;27435;48.480;9.258;2023-07-16T13:29:46;28.00;60.90
41756;DHT22;27435;48.480;9.258;2023-07-16T13:32:12;28.00;60.30
41756;DHT22;27435;48.480;9.258;2023-07-16T13:34:38;28.00;60.80
41756;DHT22;27435;48.480;9.258;2023-07-16T13:37:03;28.30;60.80
41756;DHT22;27435;48.480;9.258;2023-07-16T13:39:29;29.00;58.90
41756;DHT22;27435;48.480;9.258;2023-07-16T13:41:55;29.00;57.90
41756;DHT22;27435;48.480;9.258;2023-07-16T13:44:21;29.00;57.90
41756;DHT22;27435;48.480;9.258;2023-07-16T13:46:47;29.10;58.40
41756;DHT22;27435;48.480;9.258;2023-07-16T13:49:13;28.70;57.50
41756;DHT22;27435;48.480;9.258;2023-07-16T13:51:39;28.40;58.70
41756;DHT22;27435;48.480;9.258;2023-07-16T13:54:05;28.20;60.30
41756;DHT22;27435;48.480;9.258;2023-07-16T13:56:30;28.70;58.70
41756;DHT22;27435;48.480;9.258;2023-07-16T13:58:56;29.20;57.50
41756;DHT22;27435;48.480;9.258;2023-07-16T14:01:22;28.20;58.70
41756;DHT22;27435;48.480;9.258;2023-07-16T14:03:48;28.00;60.10
41756;DHT22;27435;48.480;9.258;2023-07-16T14:06:14;27.90;60.20
41756;DHT22;27435;48.480;9.258;2023-07-16T14:08:39;28.40;59.50
41756;DHT22;27435;48.480;9.258;2023-07-16T14:11:05;28.80;59.20
41756;DHT22;27435;48.480;9.258;2023-07-16T14:13:30;29.30;57.20
41756;DHT22;27435;48.480;9.258;2023-07-16T14:15:56;29.80;57.80
41756;DHT22;27435;48.480;9.258;2023-07-16T14:18:22;29.60;56.90
41756;DHT22;27435;48.480;9.258;2023-07-16T14:20:47;29.60;57.30
41756;DHT22;27435;48.480;9.258;2023-07-16T14:23:13;29.50;57.30
41756;DHT22;27435;48.480;9.258;2023-07-16T14:25:39;29.60;57.20
41756;DHT22;27435;48.480;9.258;2023-07-16T14:28:04;30.40;55.70
41756;DHT22;27435;48.480;9.258;2023-07-16T14:30:30;30.10;55.20
41756;DHT22;27435;48.480;9.258;2023-07-16T14:32:56;29.50;56.30
41756;DHT22;27435;48.480;9.258;2023-07-16T14:35:22;29.30;57.50
41756;DHT22;27435;48.480;9.258;2023-07-16T14:37:48;29.10;57.00
41756;DHT22;27435;48.480;9.258;2023-07-16T14:40:14;29.40;57.00
41756;DHT22;27435;48.480;9.258;2023-07-16T14:42:39;29.60;56.40
41756;DHT22;27435;48.480;9.258;2023-07-16T14:45:06;30.60;54.80
41756;DHT22;27435;48.480;9.258;2023-07-16T14:47:33;31.50;52.90
41756;DHT22;27435;48.480;9.258;2023-07-16T14:49:59;31.20;52.60
41756;DHT22;27435;48.480;9.258;2023-07-16T14:52:25;30.00;54.50
41756;DHT22;27435;48.480;9.258;2023-07-16T14:54:50;29.70;55.60
41756;DHT22;27435;48.480;9.258;2023-07-16T14:57:16;29.70;55.10
41756;DHT22;27435;48.480;9.258;2023-07-16T14:59:42;29.10;55.90
41756;DHT22;27435;48.480;9.258;2023-07-16T15:02:09;28.00;58.90
41756;DHT22;27435;48.480;9.258;2023-07-16T15:04:35;27.20;61.30
41756;DHT22;27435;48.480;9.258;2023-07-16T15:07:00;26.90;62.50
41756;DHT22;27435;48.480;9.258;2023-07-16T15:09:26;26.80;63.30
41756;DHT22;27435;48.480;9.258;2023-07-16T15:11:52;27.30;63.30
41756;DHT22;27435;48.480;9.258;2023-07-16T15:14:18;28.10;61.90
41756;DHT22;27435;48.480;9.258;2023-07-16T15:16:44;28.40;61.30
41756;DHT22;27435;48.480;9.258;2023-07-16T15:19:09;28.90;61.50
41756;DHT22;27435;48.480;9.258;2023-07-16T15:21:35;29.00;58.60
41756;DHT22;27435;48.480;9.258;2023-07-16T15:24:07;29.30;58.70
41756;DHT22;27435;48.480;9.258;2023-07-16T15:26:32;29.00;58.50
41756;DHT22;27435;48.480;9.258;2023-07-16T15:28:58;28.20;59.80
41756;DHT22;27435;48.480;9.258;2023-07-16T15:31:24;28.10;61.10
41756;DHT22;27435;48.480;9.258;2023-07-16T15:33:56;28.80;59.80